Time;durP1;ratioP1;P1;durP2;ratioP2;P2;SDS_P1;SDS_P2;PMS_P1;PMS_P2;Temp;Humidity;BMP_temperature;BMP_pressure;BME280_temperature;BME280_humidity;BME280_pressure;Samples;Min_cycle;Max_cycle;Signal;HPM_P1;HPM_P2
2023/07/20 00:02:09;;;;;;;2.60;2.33;;;24.80;59.90;24.40;96257.00;;;;5072549;28;20645;-84
2023/07/20 00:04:37;;;;;;;2.53;2.13;;;24.80;60.20;24.30;96260.00;;;;5079389;28;20622;-84
2023/07/20 00:07:06;;;;;;;3.97;2.20;;;24.80;60.40;24.20;96260.00;;;;5077182;28;20243;-83
2023/07/20 00:09:33;;;;;;;2.50;2.00;;;24.70;60.50;24.10;96269.00;;;;5069887;28;20199;-84
2023/07/20 00:12:00;;;;;;;2.23;2.03;;;24.70;60.70;24.10;96264.00;;;;5079451;28;20192;-83
2023/07/20 00:14:29;;;;;;;2.70;1.80;;;24.70;61.10;24.10;96264.00;;;;5076079;28;20731;-84
2023/07/20 00:16:58;;;;;;;1.90;1.80;;;24.60;61.30;24.10;96265.00;;;;5080497;28;20218;-84
2023/07/20 00:19:26;;;;;;;2.20;2.00;;;24.60;61.30;24.10;96256.00;;;;5053424;28;20255;-83
2023/07/20 00:21:53;;;;;;;2.30;1.83;;;24.60;61.20;24.10;96261.00;;;;5076759;28;20291;-83
2023/07/20 00:24:21;;;;;;;2.27;1.90;;;24.60;61.40;24.10;96256.00;;;;5078563;28;20241;-84
2023/07/20 00:26:49;;;;;;;1.70;1.60;;;24.60;61.50;24.20;96264.00;;;;5078764;28;20246;-84
2023/07/20 00:29:16;;;;;;;2.27;1.90;;;24.60;61.40;24.20;96267.00;;;;5084384;28;20286;-84
2023/07/20 00:31:45;;;;;;;1.73;1.63;;;24.60;61.30;24.20;96263.00;;;;5072629;28;20197;-82
2023/07/20 00:34:12;;;;;;;3.40;1.80;;;24.60;60.80;24.20;96272.00;;;;5078727;28;20737;-84
2023/07/20 00:36:39;;;;;;;2.30;1.87;;;24.60;60.40;24.20;96270.00;;;;5066880;28;20212;-84
2023/07/20 00:39:06;;;;;;;1.80;1.40;;;24.60;60.20;24.20;96263.00;;;;5070729;28;20233;-84
2023/07/20 00:41:33;;;;;;;1.67;1.57;;;24.60;60.20;24.20;96279.00;;;;5076555;28;20289;-84
2023/07/20 00:44:00;;;;;;;2.90;1.60;;;24.60;60.10;24.20;96286.00;;;;5082108;28;20627;-83
2023/07/20 00:46:28;;;;;;;2.03;1.50;;;24.60;60.00;24.20;96272.00;;;;5073531;28;20227;-83
2023/07/20 00:48:57;;;;;;;2.60;1.70;;;24.60;60.00;24.10;96268.00;;;;5080532;28;20287;-83
2023/07/20 00:51:27;;;;;;;2.57;1.77;;;24.60;60.20;24.10;96268.00;;;;5075789;28;20207;-83
2023/07/20 00:53:54;;;;;;;1.47;1.37;;;24.60;60.10;24.10;96277.00;;;;5072850;28;20218;-83
2023/07/20 00:56:23;;;;;;;3.07;1.30;;;24.60;60.10;24.10;96269.00;;;;5074883;28;20220;-83
2023/07/20 00:58:50;;;;;;;1.50;1.37;;;24.60;60.10;24.10;96269.00;;;;5077106;28;20226;-83
2023/07/20 01:01:17;;;;;;;1.70;1.60;;;24.60;60.90;24.10;96273.00;;;;5069904;28;20669;-83
2023/07/20 01:03:45;;;;;;;2.63;1.47;;;24.60;60.10;24.20;96270.00;;;;5070584;28;20257;-84
2023/07/20 01:06:28;;;;;;;1.77;1.60;;;24.60;60.20;24.20;96267.00;;;;5072482;28;20309;-83
2023/07/20 01:09:08;;;;;;;3.27;1.83;;;24.60;60.60;24.20;96268.00;;;;5082491;28;20720;-84
2023/07/20 01:11:44;;;;;;;3.67;1.70;;;24.60;60.20;24.20;96262.00;;;;5070348;28;20202;-83
2023/07/20 01:14:13;;;;;;;2.43;1.43;;;24.60;59.70;24.20;96259.00;;;;5079845;28;20227;-83
2023/07/20 01:16:40;;;;;;;1.50;1.40;;;24.60;59.50;24.20;96271.00;;;;5085000;28;20224;-83
2023/07/20 01:19:07;;;;;;;2.60;1.50;;;24.60;59.50;24.20;96268.00;;;;5078886;28;20227;-83
2023/07/20 01:21:52;;;;;;;2.30;2.00;;;24.60;59.50;24.20;96268.00;;;;5066826;28;20254;-83
2023/07/20 01:25:13;;;;;;;1.60;1.50;;;24.60;59.20;24.20;96265.00;;;;5069643;28;20192;-83
2023/07/20 01:28:38;;;;;;;1.33;1.20;;;24.60;58.90;24.20;96264.00;;;;5071273;28;20711;-83
2023/07/20 01:31:24;;;;;;;1.37;1.17;;;24.70;59.00;24.20;96259.00;;;;5062947;28;20229;-83
2023/07/20 01:33:56;;;;;;;1.63;1.50;;;24.70;58.80;24.20;96262.00;;;;5074709;28;20204;-83
2023/07/20 01:36:27;;;;;;;1.80;1.70;;;24.70;58.70;24.20;96259.00;;;;5074688;28;20240;-83
2023/07/20 01:38:56;;;;;;;1.60;1.50;;;24.60;58.70;24.20;96259.00;;;;5089966;28;20620;-83
2023/07/20 01:41:24;;;;;;;1.70;1.37;;;24.70;58.90;24.20;96261.00;;;;5069347;28;20223;-83
2023/07/20 01:43:51;;;;;;;1.93;1.60;;;24.60;58.80;24.20;96257.00;;;;5077240;28;20200;-83
2023/07/20 01:46:20;;;;;;;1.40;1.30;;;24.70;59.00;24.20;96258.00;;;;5072324;28;20220;-83
2023/07/20 01:48:48;;;;;;;1.70;1.60;;;24.60;58.90;24.20;96264.00;;;;5083039;28;20728;-83
2023/07/20 01:51:17;;;;;;;3.20;1.90;;;24.70;59.00;24.20;96265.00;;;;5066819;28;20192;-83
2023/07/20 01:53:44;;;;;;;1.60;1.50;;;24.70;59.00;24.20;96266.00;;;;5072249;28;20208;-83
2023/07/20 01:56:12;;;;;;;3.30;1.60;;;24.70;58.80;24.20;96261.00;;;;5076013;28;20219;-83
2023/07/20 01:58:41;;;;;;;1.87;1.70;;;24.70;58.60;24.20;96270.00;;;;5082468;28;20223;-83
2023/07/20 02:01:08;;;;;;;2.27;1.50;;;24.60;58.40;24.20;96263.00;;;;5072884;28;20203;-83
2023/07/20 02:03:37;;;;;;;1.87;1.77;;;24.60;58.30;24.20;96268.00;;;;5071238;28;20219;-83
2023/07/20 02:06:04;;;;;;;1.40;1.30;;;24.70;58.40;24.20;96266.00;;;;5084379;28;20219;-83
2023/07/20 02:08:31;;;;;;;2.93;2.00;;;24.70;58.40;24.20;96277.00;;;;5064037;28;20208;-83
2023/07/20 02:10:58;;;;;;;3.13;1.60;;;24.70;58.30;24.20;96274.00;;;;5067285;28;20199;-83
2023/07/20 02:13:26;;;;;;;1.67;1.57;;;24.70;58.20;24.20;96273.00;;;;5067970;28;20196;-84
2023/07/20 02:15:53;;;;;;;2.30;1.40;;;24.60;58.80;24.20;96272.00;;;;5079844;28;20582;-83
2023/07/20 02:18:20;;;;;;;1.47;1.37;;;24.60;58.10;24.20;96273.00;;;;5070599;28;20192;-83
2023/07/20 02:20:49;;;;;;;2.00;1.63;;;24.60;58.10;24.20;96269.00;;;;5077014;28;20205;-84
2023/07/20 02:23:16;;;;;;;1.83;1.40;;;24.60;58.00;24.20;96272.00;;;;5075907;28;20203;-84
2023/07/20 02:25:44;;;;;;;2.20;1.70;;;24.60;58.00;24.20;96269.00;;;;5065375;28;20778;-83
2023/07/20 02:28:16;;;;;;;1.50;1.40;;;24.60;57.80;24.20;96275.00;;;;5082892;28;20206;-84
2023/07/20 02:30:43;;;;;;;1.60;1.40;;;24.60;57.80;24.20;96281.00;;;;5072182;28;20227;-83
2023/07/20 02:33:11;;;;;;;1.43;1.30;;;24.60;57.70;24.20;96271.00;;;;5071177;28;20192;-84
2023/07/20 02:35:39;;;;;;;3.83;1.20;;;24.60;57.60;24.20;96276.00;;;;5072068;28;20308;-83
2023/07/20 02:38:08;;;;;;;1.77;1.60;;;24.60;57.50;24.20;96274.00;;;;5068969;28;20198;-84
2023/07/20 02:40:35;;;;;;;2.70;1.40;;;24.60;57.30;24.20;96276.00;;;;5070202;28;20227;-84
2023/07/20 02:43:02;;;;;;;1.67;1.47;;;24.60;57.10;24.20;96278.00;;;;5080874;28;20199;-84
2023/07/20 02:45:30;;;;;;;1.83;1.30;;;24.60;57.10;24.20;96284.00;;;;5074703;28;20205;-84
2023/07/20 02:47:57;;;;;;;1.33;0.97;;;24.60;56.90;24.20;96292.00;;;;5080493;28;20208;-84
2023/07/20 02:50:24;;;;;;;2.47;1.20;;;24.60;56.60;24.20;96280.00;;;;5075086;28;20202;-84
2023/07/20 02:52:51;;;;;;;1.43;1.00;;;24.60;56.50;24.20;96283.00;;;;5084010;28;20208;-84
2023/07/20 02:55:20;;;;;;;1.50;1.00;;;24.60;56.40;24.20;96281.00;;;;5069591;28;20286;-84
2023/07/20 02:57:47;;;;;;;2.20;1.53;;;24.60;56.40;24.20;96283.00;;;;5070710;28;20222;-83
2023/07/20 03:00:16;;;;;;;1.37;1.07;;;24.60;56.30;24.20;96291.00;;;;5070386;28;20318;-84
2023/07/20 03:02:44;;;;;;;1.00;0.90;;;24.60;56.20;24.20;96293.00;;;;5069901;28;20211;-84
2023/07/20 03:05:11;;;;;;;1.10;1.00;;;24.60;55.90;24.20;96293.00;;;;5071741;28;20223;-84
2023/07/20 03:07:38;;;;;;;1.10;0.93;;;24.60;55.90;24.10;96295.00;;;;5071661;28;20220;-85
2023/07/20 03:10:09;;;;;;;1.67;1.00;;;24.60;55.90;24.10;96299.00;;;;5071087;28;20238;-85
2023/07/20 03:12:39;;;;;;;1.53;0.90;;;24.60;55.50;24.10;96309.00;;;;5069403;28;20286;-84
2023/07/20 03:15:08;;;;;;;1.10;1.00;;;24.60;55.00;24.10;96294.00;;;;5071606;28;20548;-85
2023/07/20 03:17:36;;;;;;;1.40;0.90;;;24.50;55.10;24.10;96296.00;;;;5064132;28;20254;-84
2023/07/20 03:20:03;;;;;;;1.70;1.60;;;24.60;55.00;24.10;96302.00;;;;5071922;28;20227;-84
2023/07/20 03:22:30;;;;;;;1.23;1.00;;;24.50;54.80;24.10;96300.00;;;;5071918;28;20200;-85
2023/07/20 03:24:58;;;;;;;1.40;1.03;;;24.50;55.30;24.10;96294.00;;;;5069528;28;20199;-84
2023/07/20 03:27:25;;;;;;;3.40;1.77;;;24.50;54.70;24.10;96293.00;;;;5080037;28;20237;-85
2023/07/20 03:29:53;;;;;;;2.20;0.80;;;24.50;54.30;24.10;96295.00;;;;5076842;28;20192;-84
2023/07/20 03:32:21;;;;;;;1.37;0.83;;;24.50;54.40;24.10;96310.00;;;;5073103;28;20636;-84
2023/07/20 03:34:54;;;;;;;3.80;1.60;;;24.50;54.30;24.10;96305.00;;;;5071045;28;20649;-85
2023/07/20 03:37:21;;;;;;;1.63;0.87;;;24.50;54.00;24.00;96309.00;;;;5070330;28;20234;-84
2023/07/20 03:39:49;;;;;;;1.70;0.90;;;24.50;54.20;24.00;96306.00;;;;5070057;28;20226;-84
2023/07/20 03:42:16;;;;;;;1.23;0.80;;;24.40;54.10;24.00;96311.00;;;;5064899;28;20224;-84
2023/07/20 03:44:43;;;;;;;2.40;1.10;;;24.50;53.90;24.00;96317.00;;;;5069660;28;20210;-84
2023/07/20 03:47:12;;;;;;;3.13;1.20;;;24.50;53.90;24.00;96317.00;;;;5053864;28;20238;-84
2023/07/20 03:49:39;;;;;;;1.00;1.00;;;24.50;53.80;24.00;96312.00;;;;5075085;28;20251;-85
2023/07/20 03:52:07;;;;;;;2.27;0.90;;;24.40;53.80;24.00;96323.00;;;;5088234;28;20234;-84
2023/07/20 03:54:34;;;;;;;1.17;1.00;;;24.40;54.10;24.00;96318.00;;;;5067601;28;20224;-84
2023/07/20 03:57:01;;;;;;;1.27;1.17;;;24.40;54.00;24.00;96319.00;;;;5071556;28;20304;-84
2023/07/20 03:59:27;;;;;;;1.30;1.20;;;24.40;53.80;24.00;96329.00;;;;5077997;28;20325;-84
2023/07/20 04:01:55;;;;;;;1.00;0.90;;;24.40;54.30;24.00;96328.00;;;;5074826;28;20215;-85
2023/07/20 04:04:23;;;;;;;1.30;0.87;;;24.40;53.70;24.00;96331.00;;;;5067621;28;20284;-85
2023/07/20 04:06:50;;;;;;;0.93;0.80;;;24.40;53.60;24.00;96334.00;;;;5073319;28;20225;-85
2023/07/20 04:09:18;;;;;;;1.07;1.00;;;24.40;53.60;23.90;96321.00;;;;5067418;28;20223;-85
2023/07/20 04:11:45;;;;;;;1.57;0.83;;;24.30;53.50;23.90;96335.00;;;;5064609;28;20196;-85
2023/07/20 04:14:12;;;;;;;1.00;0.80;;;24.40;53.60;23.90;96334.00;;;;5066228;28;20206;-85
2023/07/20 04:16:39;;;;;;;0.70;0.67;;;24.40;53.80;23.90;96334.00;;;;5077967;28;20720;-85
2023/07/20 04:19:07;;;;;;;2.53;0.93;;;24.40;53.80;23.90;96339.00;;;;5078890;28;20290;-84
2023/07/20 04:21:42;;;;;;;1.70;1.20;;;24.30;53.80;23.90;96339.00;;;;5073338;28;20202;-84
2023/07/20 04:24:09;;;;;;;2.07;0.80;;;24.40;53.60;23.90;96341.00;;;;5086449;28;20190;-86
2023/07/20 04:26:36;;;;;;;2.00;0.70;;;24.30;53.60;23.90;96340.00;;;;5083835;28;20226;-87
2023/07/20 04:29:04;;;;;;;1.23;0.93;;;24.30;53.50;23.90;96344.00;;;;5085021;28;20286;-86
2023/07/20 04:31:33;;;;;;;2.73;0.90;;;24.40;53.40;23.90;96355.00;;;;5076131;28;20204;-86
2023/07/20 04:34:00;;;;;;;0.83;0.83;;;24.30;53.10;23.90;96341.00;;;;5074935;28;20683;-83
2023/07/20 04:36:27;;;;;;;1.63;0.73;;;24.30;52.80;23.80;96352.00;;;;5085217;28;20682;-85
2023/07/20 04:38:56;;;;;;;1.43;0.73;;;24.30;53.00;23.80;96348.00;;;;5071851;28;20203;-85
2023/07/20 04:41:24;;;;;;;1.13;0.90;;;24.30;52.90;23.80;96352.00;;;;5079857;28;20306;-84
2023/07/20 04:43:53;;;;;;;1.10;0.90;;;24.30;52.50;23.80;96354.00;;;;5075300;28;20195;-86
2023/07/20 04:46:21;;;;;;;0.93;0.80;;;24.30;52.40;23.80;96348.00;;;;5077206;28;20238;-86
2023/07/20 04:48:48;;;;;;;1.30;0.90;;;24.30;52.20;23.80;96352.00;;;;5079668;28;20206;-86
2023/07/20 04:51:17;;;;;;;1.37;1.00;;;24.30;52.20;23.80;96360.00;;;;5076746;28;20198;-87
2023/07/20 04:53:45;;;;;;;1.53;1.10;;;24.30;51.70;23.80;96357.00;;;;5073943;28;20206;-86
2023/07/20 04:56:16;;;;;;;1.97;1.13;;;24.30;51.60;23.80;96356.00;;;;5090424;28;20227;-86
2023/07/20 04:58:43;;;;;;;1.33;1.07;;;24.30;51.40;23.80;96364.00;;;;5074563;28;20697;-85
2023/07/20 05:01:10;;;;;;;0.70;0.70;;;24.20;52.20;23.80;96360.00;;;;5067737;28;20652;-86
2023/07/20 05:03:37;;;;;;;1.03;1.03;;;24.20;51.60;23.80;96358.00;;;;5087146;28;20215;-86
2023/07/20 05:06:04;;;;;;;1.33;0.70;;;24.30;51.60;23.80;96369.00;;;;5091392;28;20234;-85
2023/07/20 05:08:31;;;;;;;1.40;0.80;;;24.30;51.50;23.80;96358.00;;;;5088595;28;20259;-86
2023/07/20 05:10:58;;;;;;;1.43;0.70;;;24.30;51.60;23.80;96356.00;;;;5089302;28;20205;-85
2023/07/20 05:13:27;;;;;;;1.77;0.93;;;24.30;51.40;23.80;96367.00;;;;5092354;28;20245;-86
2023/07/20 05:15:54;;;;;;;2.47;1.50;;;24.30;51.10;23.80;96363.00;;;;5091583;28;20223;-87
2023/07/20 05:18:21;;;;;;;1.07;0.97;;;24.30;51.20;23.80;96361.00;;;;5078758;28;20227;-87
2023/07/20 05:20:49;;;;;;;1.20;0.80;;;24.20;51.10;23.80;96364.00;;;;5080821;28;20750;-86
2023/07/20 05:23:20;;;;;;;1.00;0.90;;;24.30;51.10;23.80;96365.00;;;;5079167;28;20211;-86
2023/07/20 05:25:50;;;;;;;1.23;0.90;;;24.20;51.00;23.80;96374.00;;;;5087684;28;20208;-85
2023/07/20 05:28:18;;;;;;;1.33;0.90;;;24.20;51.40;23.80;96366.00;;;;5063509;28;20202;-84
2023/07/20 05:30:46;;;;;;;0.80;0.80;;;24.30;51.30;23.80;96379.00;;;;5068527;28;20206;-84
2023/07/20 05:33:14;;;;;;;1.27;0.90;;;24.20;51.30;23.80;96376.00;;;;5062095;28;20282;-84
2023/07/20 05:35:41;;;;;;;1.43;0.80;;;24.20;51.10;23.80;96377.00;;;;5064763;28;20197;-84
2023/07/20 05:38:08;;;;;;;1.47;0.90;;;24.30;51.10;23.80;96378.00;;;;5063794;28;20207;-84
2023/07/20 05:40:38;;;;;;;1.30;0.80;;;24.20;51.20;23.80;96375.00;;;;5065095;28;20218;-83
2023/07/20 05:43:05;;;;;;;1.00;0.90;;;24.20;51.20;23.80;96376.00;;;;5065636;28;20714;-84
2023/07/20 05:45:34;;;;;;;1.60;1.00;;;24.20;51.30;23.80;96389.00;;;;5067580;28;20255;-83
2023/07/20 05:48:02;;;;;;;1.20;1.00;;;24.20;51.30;23.80;96383.00;;;;5063768;28;20192;-83
2023/07/20 05:50:30;;;;;;;1.30;0.80;;;24.20;51.30;23.80;96389.00;;;;5067356;28;20198;-83
2023/07/20 05:52:57;;;;;;;1.03;1.00;;;24.20;51.40;23.80;96382.00;;;;5072462;28;20232;-84
2023/07/20 05:55:24;;;;;;;2.40;0.93;;;24.20;51.70;23.80;96387.00;;;;5075853;28;20194;-84
2023/07/20 05:57:52;;;;;;;1.17;1.03;;;24.20;51.60;23.80;96389.00;;;;5073601;28;20953;-84
2023/07/20 06:00:26;;;;;;;1.13;1.00;;;24.20;51.40;23.80;96394.00;;;;5074474;28;20311;-84
2023/07/20 06:02:54;;;;;;;1.63;0.80;;;24.30;51.30;23.90;96389.00;;;;5064408;28;20199;-84
2023/07/20 06:05:23;;;;;;;1.33;0.90;;;24.30;51.20;23.80;96393.00;;;;5072495;28;20192;-83
2023/07/20 06:07:50;;;;;;;0.80;0.70;;;24.30;51.30;23.90;96403.00;;;;5055625;28;20613;-83
2023/07/20 06:10:18;;;;;;;0.93;0.90;;;24.30;51.30;23.90;96403.00;;;;5072936;28;20212;-84
2023/07/20 06:12:45;;;;;;;1.13;0.90;;;24.30;51.40;23.90;96406.00;;;;5074188;28;20651;-84
2023/07/20 06:15:27;;;;;;;2.03;1.00;;;24.30;51.30;23.90;96403.00;;;;5088826;28;20271;-84
2023/07/20 06:17:57;;;;;;;1.43;0.90;;;24.30;51.10;23.90;96409.00;;;;5073577;28;20195;-84
2023/07/20 06:20:26;;;;;;;2.47;0.87;;;24.30;51.20;24.00;96403.00;;;;5081315;28;20253;-83
2023/07/20 06:22:54;;;;;;;1.20;0.70;;;24.30;51.30;24.00;96406.00;;;;5074995;28;20200;-84
2023/07/20 06:25:22;;;;;;;1.20;1.00;;;24.40;51.40;24.00;96401.00;;;;5069095;28;20200;-83
2023/07/20 06:27:51;;;;;;;1.33;0.90;;;24.40;51.20;24.10;96404.00;;;;5070777;28;20204;-84
2023/07/20 06:30:19;;;;;;;1.70;0.90;;;24.40;51.20;24.10;96398.00;;;;5072743;28;20204;-84
2023/07/20 06:32:48;;;;;;;1.10;1.00;;;24.40;51.00;24.10;96402.00;;;;5068727;28;20196;-84
2023/07/20 06:35:17;;;;;;;1.10;0.90;;;24.50;51.00;24.10;96395.00;;;;5071386;28;20267;-84
2023/07/20 06:37:47;;;;;;;1.40;0.80;;;24.50;50.90;24.10;96392.00;;;;5065187;28;20605;-83
2023/07/20 06:40:14;;;;;;;4.47;1.20;;;24.50;50.80;24.10;96398.00;;;;5071299;28;20768;-83
2023/07/20 06:42:41;;;;;;;1.70;1.17;;;24.50;51.10;24.10;96389.00;;;;5070164;28;20210;-83
2023/07/20 06:45:10;;;;;;;0.93;0.80;;;24.50;51.00;24.20;96403.00;;;;5070428;28;20291;-83
2023/07/20 06:47:40;;;;;;;1.30;0.80;;;24.60;51.00;24.20;96402.00;;;;5067608;28;20215;-83
2023/07/20 06:50:10;;;;;;;1.17;0.90;;;24.60;51.10;24.20;96400.00;;;;5071469;28;20200;-85
2023/07/20 06:52:39;;;;;;;0.80;0.70;;;24.60;51.10;24.30;96394.00;;;;5064868;28;20218;-84
2023/07/20 06:55:09;;;;;;;2.97;1.50;;;24.60;51.10;24.30;96402.00;;;;5065517;28;20192;-85
2023/07/20 06:57:37;;;;;;;1.30;0.90;;;24.70;51.70;24.30;96399.00;;;;5067101;28;20216;-84
2023/07/20 07:00:06;;;;;;;1.27;1.17;;;24.70;51.20;24.40;96405.00;;;;5068799;28;20200;-84
2023/07/20 07:02:34;;;;;;;1.60;1.10;;;24.70;51.40;24.40;96408.00;;;;5072831;28;20297;-85
2023/07/20 07:05:02;;;;;;;1.27;1.17;;;24.80;51.50;24.50;96403.00;;;;5070012;28;20667;-84
2023/07/20 07:07:29;;;;;;;0.93;0.83;;;24.80;51.90;24.50;96397.00;;;;5071923;28;20232;-85
2023/07/20 07:09:56;;;;;;;1.30;1.20;;;24.90;51.10;24.60;96405.00;;;;5070484;28;20263;-85
2023/07/20 07:12:25;;;;;;;4.03;1.10;;;24.90;51.00;24.60;96403.00;;;;5071991;28;20224;-84
2023/07/20 07:14:53;;;;;;;1.13;0.97;;;25.00;51.00;24.70;96405.00;;;;5072818;28;20199;-84
2023/07/20 07:17:20;;;;;;;1.00;0.90;;;25.00;50.80;24.70;96408.00;;;;5081330;28;20215;-85
2023/07/20 07:19:48;;;;;;;0.93;0.90;;;25.00;50.90;24.70;96415.00;;;;5072868;28;20728;-85
2023/07/20 07:22:15;;;;;;;1.03;0.97;;;25.10;50.70;24.70;96408.00;;;;5081160;28;20637;-85
2023/07/20 07:24:42;;;;;;;1.40;1.10;;;25.10;50.40;24.70;96401.00;;;;5074090;28;20577;-86
2023/07/20 07:27:10;;;;;;;1.00;1.00;;;25.10;50.20;24.70;96399.00;;;;5068149;28;20220;-86
2023/07/20 07:29:39;;;;;;;1.20;0.90;;;25.10;50.70;24.80;96398.00;;;;5067478;28;20188;-85
2023/07/20 07:32:10;;;;;;;2.00;1.00;;;25.10;49.80;24.80;96400.00;;;;5073349;28;20206;-85
2023/07/20 07:34:37;;;;;;;1.93;0.73;;;25.10;49.80;24.80;96403.00;;;;5069240;28;20210;-85
2023/07/20 07:37:06;;;;;;;1.23;0.80;;;25.10;49.90;24.80;96400.00;;;;5064267;28;20238;-85
2023/07/20 07:39:34;;;;;;;1.07;0.97;;;25.20;50.20;24.80;96392.00;;;;5068572;28;20772;-84
2023/07/20 07:42:01;;;;;;;2.73;1.00;;;25.20;50.20;24.90;96398.00;;;;5066063;28;20563;-85
2023/07/20 07:44:28;;;;;;;1.20;1.10;;;25.20;50.90;24.90;96398.00;;;;5068628;28;20202;-85
2023/07/20 07:46:57;;;;;;;1.00;0.90;;;25.20;49.80;25.00;96406.00;;;;5076059;28;20592;-85
2023/07/20 07:49:25;;;;;;;0.80;0.70;;;25.30;49.90;25.00;96405.00;;;;5077424;28;20199;-85
2023/07/20 07:51:53;;;;;;;1.77;1.10;;;25.30;50.00;25.10;96402.00;;;;5080246;28;20205;-85
2023/07/20 07:54:20;;;;;;;1.47;0.80;;;25.40;49.80;25.10;96404.00;;;;5070074;28;20192;-85
2023/07/20 07:56:47;;;;;;;0.73;0.63;;;25.40;49.40;25.20;96407.00;;;;5070563;28;20674;-86
2023/07/20 07:59:15;;;;;;;1.27;0.67;;;25.50;48.90;25.20;96412.00;;;;5073697;28;20192;-85
2023/07/20 08:01:43;;;;;;;1.03;0.93;;;25.50;48.70;25.30;96422.00;;;;5076153;28;20306;-85
2023/07/20 08:04:13;;;;;;;1.07;0.90;;;25.60;48.40;25.30;96414.00;;;;5076333;28;20815;-85
2023/07/20 08:06:40;;;;;;;1.27;0.60;;;25.60;48.30;25.40;96414.00;;;;5078643;28;20244;-85
2023/07/20 08:09:07;;;;;;;0.70;0.60;;;25.70;48.30;25.40;96414.00;;;;5076366;28;20744;-85
2023/07/20 08:11:34;;;;;;;1.43;0.87;;;25.70;47.90;25.50;96411.00;;;;5073972;28;20287;-85
2023/07/20 08:14:02;;;;;;;0.83;0.70;;;25.80;47.70;25.50;96409.00;;;;5082484;28;20237;-85
2023/07/20 08:16:30;;;;;;;1.70;0.83;;;25.80;47.50;25.60;96419.00;;;;5076137;28;20618;-85
2023/07/20 08:18:57;;;;;;;0.60;0.60;;;25.90;48.00;25.60;96414.00;;;;5068067;28;20283;-84
2023/07/20 08:21:26;;;;;;;2.23;1.00;;;25.90;47.90;25.80;96418.00;;;;5076975;28;20223;-85
2023/07/20 08:23:53;;;;;;;1.67;0.80;;;26.00;48.10;25.90;96418.00;;;;5084445;28;20227;-84
2023/07/20 08:26:22;;;;;;;1.27;0.97;;;26.10;48.30;26.00;96419.00;;;;5074005;28;20610;-85
2023/07/20 08:28:49;;;;;;;2.63;0.87;;;26.20;48.00;26.10;96418.00;;;;5074016;28;20574;-85
2023/07/20 08:31:16;;;;;;;1.37;0.80;;;26.30;47.60;26.30;96413.00;;;;5081875;28;20215;-84
2023/07/20 08:33:44;;;;;;;1.23;0.80;;;26.40;47.60;26.40;96416.00;;;;5076553;28;20203;-85
2023/07/20 08:36:12;;;;;;;1.40;0.60;;;26.50;47.10;26.60;96424.00;;;;5074189;28;20295;-85
2023/07/20 08:38:40;;;;;;;1.73;0.60;;;26.70;47.20;26.70;96417.00;;;;5075330;28;20259;-86
2023/07/20 08:41:10;;;;;;;0.60;0.60;;;26.80;46.50;26.80;96424.00;;;;5084783;28;20216;-86
2023/07/20 08:43:42;;;;;;;1.60;0.80;;;26.90;46.30;26.90;96413.00;;;;5074821;28;20659;-86
2023/07/20 08:46:12;;;;;;;0.93;0.63;;;27.10;46.10;27.00;96411.00;;;;5073509;28;20269;-86
2023/07/20 08:48:41;;;;;;;1.20;0.70;;;27.10;46.20;27.20;96413.00;;;;5078726;28;20206;-84
2023/07/20 08:51:08;;;;;;;0.80;0.80;;;27.30;45.90;27.30;96420.00;;;;5075819;28;20198;-87
2023/07/20 08:53:35;;;;;;;0.77;0.77;;;27.40;45.20;27.40;96418.00;;;;5070637;28;20229;-85
2023/07/20 08:56:06;;;;;;;1.00;0.60;;;27.50;45.40;27.60;96407.00;;;;5084256;28;20211;-84
2023/07/20 08:58:36;;;;;;;1.13;0.70;;;27.60;45.20;27.70;96406.00;;;;5078694;28;20210;-86
2023/07/20 09:01:04;;;;;;;0.88;0.70;;;27.80;44.90;27.90;96404.00;;;;5080284;28;20828;-85
2023/07/20 09:03:32;;;;;;;0.60;0.60;;;28.00;45.00;28.00;96414.00;;;;5070547;28;20200;-85
2023/07/20 09:06:00;;;;;;;0.60;0.60;;;28.10;44.20;28.10;96408.00;;;;5082177;28;20219;-86
2023/07/20 09:08:27;;;;;;;0.75;0.60;;;28.20;43.80;28.20;96427.00;;;;5076319;28;20216;-84
2023/07/20 09:10:54;;;;;;;0.63;0.60;;;28.30;43.60;28.30;96412.00;;;;5057855;28;20196;-86
2023/07/20 09:13:25;;;;;;;0.55;0.55;;;28.40;43.50;28.40;96415.00;;;;5074647;28;20196;-86
2023/07/20 09:15:55;;;;;;;0.68;0.68;;;28.50;43.10;28.50;96411.00;;;;5058236;28;20294;-85
2023/07/20 09:18:26;;;;;;;0.60;0.60;;;28.60;42.30;28.60;96417.00;;;;5072011;28;20208;-85
2023/07/20 09:20:54;;;;;;;0.90;0.60;;;28.70;41.90;28.70;96414.00;;;;5054546;28;20757;-85
2023/07/20 09:23:23;;;;;;;0.60;0.60;;;28.80;42.10;28.70;96421.00;;;;5074145;28;20234;-85
2023/07/20 09:25:51;;;;;;;0.85;0.55;;;28.90;41.90;28.80;96426.00;;;;5070658;28;20215;-85
2023/07/20 09:28:19;;;;;;;1.70;0.90;;;28.90;42.30;28.80;96423.00;;;;5066572;28;20231;-84
2023/07/20 09:30:48;;;;;;;0.70;0.70;;;29.00;41.90;28.80;96418.00;;;;5070020;28;21849;-84
2023/07/20 09:33:22;;;;;;;1.10;0.68;;;29.00;41.60;28.80;96419.00;;;;5070642;28;20613;-84
2023/07/20 09:35:49;;;;;;;0.60;0.60;;;29.10;41.20;28.90;96413.00;;;;5070004;28;20218;-84
2023/07/20 09:38:16;;;;;;;0.95;0.77;;;29.10;41.80;29.00;96413.00;;;;5068271;28;20653;-85
2023/07/20 09:40:44;;;;;;;0.90;0.82;;;29.20;41.90;29.00;96413.00;;;;5064716;28;20192;-85
2023/07/20 09:43:12;;;;;;;1.15;0.68;;;29.20;41.60;29.00;96413.00;;;;5061868;28;20750;-85
2023/07/20 09:45:42;;;;;;;1.20;0.90;;;29.30;41.60;29.10;96402.00;;;;5063620;28;20259;-85
2023/07/20 09:48:12;;;;;;;0.95;0.80;;;29.30;41.60;29.10;96412.00;;;;5070332;28;20623;-85
2023/07/20 09:50:50;;;;;;;1.77;0.90;;;29.40;41.60;29.20;96412.00;;;;5071006;28;20192;-85
2023/07/20 09:53:19;;;;;;;0.70;0.70;;;29.50;41.30;29.20;96418.00;;;;5074330;28;20207;-85
2023/07/20 09:55:47;;;;;;;1.77;0.95;;;29.50;41.10;29.20;96409.00;;;;5073087;28;20212;-85
2023/07/20 09:58:16;;;;;;;1.23;0.70;;;29.60;41.10;29.30;96402.00;;;;5079539;28;20213;-85
2023/07/20 10:00:46;;;;;;;0.80;0.70;;;29.60;41.10;29.30;96407.00;;;;5081324;28;20196;-85
2023/07/20 10:03:23;;;;;;;0.80;0.80;;;29.70;41.00;29.40;96418.00;;;;5082323;28;20199;-85
2023/07/20 10:05:58;;;;;;;1.25;1.00;;;29.80;41.20;29.40;96411.00;;;;5068180;28;20218;-85
2023/07/20 10:08:27;;;;;;;1.08;0.60;;;29.90;40.50;29.50;96413.00;;;;5072556;28;20283;-84
2023/07/20 10:10:54;;;;;;;1.17;0.68;;;30.00;41.10;29.60;96412.00;;;;5068402;28;20295;-85
2023/07/20 10:13:30;;;;;;;0.70;0.70;;;30.20;41.40;29.80;96412.00;;;;5072580;28;20677;-85
2023/07/20 10:16:04;;;;;;;1.08;0.52;;;30.30;41.20;29.90;96402.00;;;;5083072;28;20208;-86
2023/07/20 10:18:44;;;;;;;0.82;0.82;;;30.50;41.10;30.10;96410.00;;;;5073141;28;20283;-85
2023/07/20 10:21:12;;;;;;;1.30;0.80;;;30.70;40.00;30.20;96407.00;;;;5081226;28;20196;-85
2023/07/20 10:23:40;;;;;;;1.55;0.70;;;30.90;40.00;30.30;96409.00;;;;5072257;28;20223;-86
2023/07/20 10:26:09;;;;;;;1.23;0.82;;;31.00;40.40;30.40;96409.00;;;;5070854;28;20837;-87
2023/07/20 10:28:37;;;;;;;1.20;0.60;;;31.10;40.00;30.40;96398.00;;;;5077908;28;20192;-86
2023/07/20 10:31:05;;;;;;;0.68;0.60;;;31.20;40.00;30.50;96400.00;;;;5069389;28;20275;-85
2023/07/20 10:33:34;;;;;;;0.70;0.70;;;31.30;40.00;30.60;96400.00;;;;5068785;28;20245;-86
2023/07/20 10:36:05;;;;;;;0.70;0.70;;;31.30;39.50;30.60;96400.00;;;;5074007;28;20303;-84
2023/07/20 10:38:42;;;;;;;1.02;0.98;;;31.30;39.60;30.70;96402.00;;;;5069675;28;20203;-83
2023/07/20 10:41:22;;;;;;;1.58;0.70;;;31.40;39.20;30.80;96397.00;;;;5070898;28;20257;-86
2023/07/20 10:43:51;;;;;;;1.30;0.90;;;31.40;38.60;30.90;96398.00;;;;5070202;28;20192;-84
2023/07/20 10:46:44;;;;;;;1.63;1.02;;;31.50;39.50;31.00;96405.00;;;;5070268;28;20211;-87
2023/07/20 10:49:15;;;;;;;0.95;0.73;;;31.60;39.20;31.10;96397.00;;;;5068018;28;20725;-87
2023/07/20 10:51:44;;;;;;;1.02;0.70;;;31.70;38.70;31.20;96403.00;;;;5072079;28;20669;-87
2023/07/20 10:54:51;;;;;;;1.52;0.93;;;31.70;38.50;31.20;96387.00;;;;5078274;28;20212;-86
2023/07/20 10:57:25;;;;;;;1.15;0.80;;;31.70;38.50;31.20;96391.00;;;;5071368;28;20269;-87
2023/07/20 10:59:52;;;;;;;1.63;0.70;;;31.80;38.70;31.20;96393.00;;;;5063624;28;20253;-86
2023/07/20 11:02:22;;;;;;;1.08;0.77;;;31.70;38.00;31.20;96391.00;;;;5074439;28;20223;-87
2023/07/20 11:04:51;;;;;;;1.15;0.68;;;31.70;38.10;31.10;96392.00;;;;5071154;28;20744;-85